sensor_id;sensor_type;location;lat;lon;timestamp;pressure;altitude;pressure_sealevel;temperature;humidity
74881;BME280;63427;49.654;6.596;2023-01-29T00:00:23;101014.61;;;4.79;33.03
74881;BME280;63427;49.654;6.596;2023-01-29T00:02:49;101013.54;;;4.55;32.99
74881;BME280;63427;49.654;6.596;2023-01-29T00:05:14;101008.52;;;4.49;32.45
74881;BME280;63427;49.654;6.596;2023-01-29T00:07:40;101008.23;;;4.76;32.51
74881;BME280;63427;49.654;6.596;2023-01-29T00:10:05;101009.30;;;4.79;33.11
74881;BME280;63427;49.654;6.596;2023-01-29T00:12:30;101010.17;;;4.52;33.83
74881;BME280;63427;49.654;6.596;2023-01-29T00:14:56;101015.96;;;4.69;33.63
74881;BME280;63427;49.654;6.596;2023-01-29T00:17:21;101014.67;;;4.66;33.94
74881;BME280;63427;49.654;6.596;2023-01-29T00:19:46;101009.85;;;4.73;34.37
74881;BME280;63427;49.654;6.596;2023-01-29T00:22:11;101014.76;;;4.88;34.47
74881;BME280;63427;49.654;6.596;2023-01-29T00:24:37;101013.20;;;4.61;33.91
74881;BME280;63427;49.654;6.596;2023-01-29T00:27:02;101015.70;;;4.47;32.99
74881;BME280;63427;49.654;6.596;2023-01-29T00:29:27;101018.91;;;4.51;33.42
74881;BME280;63427;49.654;6.596;2023-01-29T00:31:53;101022.29;;;4.31;33.42
74881;BME280;63427;49.654;6.596;2023-01-29T00:34:19;101029.07;;;4.11;33.10
74881;BME280;63427;49.654;6.596;2023-01-29T00:36:44;101035.16;;;4.02;33.39
74881;BME280;63427;49.654;6.596;2023-01-29T00:39:09;101040.31;;;4.26;33.36
74881;BME280;63427;49.654;6.596;2023-01-29T00:41:36;101040.46;;;4.33;32.99
74881;BME280;63427;49.654;6.596;2023-01-29T00:44:00;101041.10;;;4.27;33.58
74881;BME280;63427;49.654;6.596;2023-01-29T00:46:25;101041.63;;;4.21;34.06
74881;BME280;63427;49.654;6.596;2023-01-29T00:48:51;101041.87;;;4.09;33.94
74881;BME280;63427;49.654;6.596;2023-01-29T00:51:16;101043.92;;;4.44;34.45
74881;BME280;63427;49.654;6.596;2023-01-29T00:53:41;101041.30;;;4.52;34.44
74881;BME280;63427;49.654;6.596;2023-01-29T00:56:06;101041.58;;;4.30;33.42
74881;BME280;63427;49.654;6.596;2023-01-29T00:58:32;101040.32;;;4.43;33.27
74881;BME280;63427;49.654;6.596;2023-01-29T01:00:57;101045.14;;;4.01;33.94
74881;BME280;63427;49.654;6.596;2023-01-29T01:03:22;101045.48;;;4.19;33.60
74881;BME280;63427;49.654;6.596;2023-01-29T01:05:47;101047.52;;;4.07;32.95
74881;BME280;63427;49.654;6.596;2023-01-29T01:08:12;101047.22;;;4.20;32.96
74881;BME280;63427;49.654;6.596;2023-01-29T01:10:38;101045.64;;;4.19;33.50
74881;BME280;63427;49.654;6.596;2023-01-29T01:13:04;101032.11;;;3.85;34.93
74881;BME280;63427;49.654;6.596;2023-01-29T01:15:31;101030.93;;;4.20;34.98
74881;BME280;63427;49.654;6.596;2023-01-29T01:17:56;101022.52;;;3.45;33.68
74881;BME280;63427;49.654;6.596;2023-01-29T01:20:20;101019.70;;;4.17;33.96
74881;BME280;63427;49.654;6.596;2023-01-29T01:22:45;101011.51;;;4.28;34.41
74881;BME280;63427;49.654;6.596;2023-01-29T01:25:11;101012.95;;;4.11;34.71
74881;BME280;63427;49.654;6.596;2023-01-29T01:27:36;101010.30;;;4.20;33.42
74881;BME280;63427;49.654;6.596;2023-01-29T01:30:01;101007.07;;;3.29;33.19
74881;BME280;63427;49.654;6.596;2023-01-29T01:32:27;101004.76;;;3.37;33.19
74881;BME280;63427;49.654;6.596;2023-01-29T01:34:52;101002.19;;;3.61;34.01
74881;BME280;63427;49.654;6.596;2023-01-29T01:37:18;101004.58;;;3.85;33.27
74881;BME280;63427;49.654;6.596;2023-01-29T01:39:44;101005.57;;;3.86;34.35
74881;BME280;63427;49.654;6.596;2023-01-29T01:42:11;101008.86;;;4.11;34.19
74881;BME280;63427;49.654;6.596;2023-01-29T01:44:50;101002.81;;;4.21;35.03
74881;BME280;63427;49.654;6.596;2023-01-29T01:47:00;100997.01;;;4.33;34.05
74881;BME280;63427;49.654;6.596;2023-01-29T01:49:25;101001.34;;;4.29;34.30
74881;BME280;63427;49.654;6.596;2023-01-29T01:51:51;101004.73;;;3.98;34.20
74881;BME280;63427;49.654;6.596;2023-01-29T01:54:19;100996.77;;;4.30;34.54
74881;BME280;63427;49.654;6.596;2023-01-29T01:56:45;100987.19;;;4.28;33.90
74881;BME280;63427;49.654;6.596;2023-01-29T01:59:09;100986.73;;;4.15;33.66
74881;BME280;63427;49.654;6.596;2023-01-29T02:01:33;100984.06;;;4.02;33.97
74881;BME280;63427;49.654;6.596;2023-01-29T02:04:01;100979.68;;;4.31;33.87
74881;BME280;63427;49.654;6.596;2023-01-29T02:06:24;100978.60;;;4.12;33.69
74881;BME280;63427;49.654;6.596;2023-01-29T02:08:53;100981.09;;;4.09;34.47
74881;BME280;63427;49.654;6.596;2023-01-29T02:11:15;100978.12;;;3.82;34.17
74881;BME280;63427;49.654;6.596;2023-01-29T02:13:40;100973.33;;;4.03;34.32
74881;BME280;63427;49.654;6.596;2023-01-29T02:16:06;100973.37;;;4.13;34.79
74881;BME280;63427;49.654;6.596;2023-01-29T02:18:31;100972.56;;;4.13;35.06
74881;BME280;63427;49.654;6.596;2023-01-29T02:21:09;100971.14;;;4.26;34.57
74881;BME280;63427;49.654;6.596;2023-01-29T02:23:41;100968.40;;;4.23;34.50
74881;BME280;63427;49.654;6.596;2023-01-29T02:25:57;100968.76;;;4.15;34.01
74881;BME280;63427;49.654;6.596;2023-01-29T02:28:18;100972.54;;;3.42;33.56
74881;BME280;63427;49.654;6.596;2023-01-29T02:30:43;100976.22;;;3.18;33.23
74881;BME280;63427;49.654;6.596;2023-01-29T02:33:07;100980.26;;;2.67;33.62
74881;BME280;63427;49.654;6.596;2023-01-29T02:35:34;100986.61;;;3.27;34.45
74881;BME280;63427;49.654;6.596;2023-01-29T02:38:01;100993.00;;;3.43;34.29
74881;BME280;63427;49.654;6.596;2023-01-29T02:40:27;100998.45;;;3.53;33.67
74881;BME280;63427;49.654;6.596;2023-01-29T02:42:51;101000.29;;;3.71;32.79
74881;BME280;63427;49.654;6.596;2023-01-29T02:45:14;101006.20;;;3.53;33.90
74881;BME280;63427;49.654;6.596;2023-01-29T02:47:40;101012.05;;;3.66;33.48
74881;BME280;63427;49.654;6.596;2023-01-29T02:50:09;101019.15;;;4.01;34.40
74881;BME280;63427;49.654;6.596;2023-01-29T02:52:30;101014.60;;;3.77;32.85
74881;BME280;63427;49.654;6.596;2023-01-29T02:54:54;101011.48;;;3.91;32.95
74881;BME280;63427;49.654;6.596;2023-01-29T02:57:19;101006.06;;;3.98;33.80
74881;BME280;63427;49.654;6.596;2023-01-29T02:59:44;101003.37;;;3.92;34.01
74881;BME280;63427;49.654;6.596;2023-01-29T03:02:09;101002.32;;;4.00;33.82
74881;BME280;63427;49.654;6.596;2023-01-29T03:04:36;101005.69;;;4.07;33.81
74881;BME280;63427;49.654;6.596;2023-01-29T03:07:00;101002.81;;;3.97;32.51
74881;BME280;63427;49.654;6.596;2023-01-29T03:09:25;100998.37;;;4.01;32.50
74881;BME280;63427;49.654;6.596;2023-01-29T03:11:52;100998.67;;;3.97;32.60
74881;BME280;63427;49.654;6.596;2023-01-29T03:14:17;100995.34;;;4.01;32.29
74881;BME280;63427;49.654;6.596;2023-01-29T03:16:40;100992.68;;;3.87;33.36
74881;BME280;63427;49.654;6.596;2023-01-29T03:19:06;100992.05;;;3.91;33.58
74881;BME280;63427;49.654;6.596;2023-01-29T03:21:31;100983.80;;;4.06;33.54
74881;BME280;63427;49.654;6.596;2023-01-29T03:23:55;100977.98;;;4.09;33.33
74881;BME280;63427;49.654;6.596;2023-01-29T03:26:20;100977.26;;;3.86;33.18
74881;BME280;63427;49.654;6.596;2023-01-29T03:28:45;100977.04;;;3.77;33.73
74881;BME280;63427;49.654;6.596;2023-01-29T03:31:11;100978.61;;;3.79;34.38
74881;BME280;63427;49.654;6.596;2023-01-29T03:33:39;100977.86;;;3.54;33.91
74881;BME280;63427;49.654;6.596;2023-01-29T03:36:05;100975.82;;;3.57;34.29
74881;BME280;63427;49.654;6.596;2023-01-29T03:38:26;100975.66;;;3.23;34.21
74881;BME280;63427;49.654;6.596;2023-01-29T03:40:54;100980.93;;;3.51;34.11
74881;BME280;63427;49.654;6.596;2023-01-29T03:43:24;100988.93;;;3.60;33.22
74881;BME280;63427;49.654;6.596;2023-01-29T03:45:53;100992.65;;;3.53;34.04
74881;BME280;63427;49.654;6.596;2023-01-29T03:48:12;100997.20;;;3.64;34.36
74881;BME280;63427;49.654;6.596;2023-01-29T03:50:37;101004.46;;;3.58;33.52
74881;BME280;63427;49.654;6.596;2023-01-29T03:53:03;101003.64;;;3.66;32.93
74881;BME280;63427;49.654;6.596;2023-01-29T03:55:31;100998.99;;;4.01;32.03
74881;BME280;63427;49.654;6.596;2023-01-29T03:57:56;100996.41;;;3.51;33.22
74881;BME280;63427;49.654;6.596;2023-01-29T04:00:17;100991.54;;;3.68;34.44
74881;BME280;63427;49.654;6.596;2023-01-29T04:02:47;100990.72;;;3.85;33.70
74881;BME280;63427;49.654;6.596;2023-01-29T04:05:10;100986.57;;;3.77;33.81
74881;BME280;63427;49.654;6.596;2023-01-29T04:07:32;100991.04;;;3.73;33.58
74881;BME280;63427;49.654;6.596;2023-01-29T04:09:59;100991.39;;;3.59;32.35
74881;BME280;63427;49.654;6.596;2023-01-29T04:12:25;100996.38;;;3.92;33.03
74881;BME280;63427;49.654;6.596;2023-01-29T04:14:50;100994.57;;;3.55;33.16
74881;BME280;63427;49.654;6.596;2023-01-29T04:17:16;100990.71;;;3.40;33.14
74881;BME280;63427;49.654;6.596;2023-01-29T04:19:40;100989.50;;;3.47;33.51
74881;BME280;63427;49.654;6.596;2023-01-29T04:22:08;100995.89;;;3.52;34.31
74881;BME280;63427;49.654;6.596;2023-01-29T04:24:30;100995.17;;;3.96;32.99
74881;BME280;63427;49.654;6.596;2023-01-29T04:27:06;100994.89;;;3.75;34.00
74881;BME280;63427;49.654;6.596;2023-01-29T04:29:33;100998.40;;;3.53;33.42
74881;BME280;63427;49.654;6.596;2023-01-29T04:31:53;100999.51;;;3.77;33.85
74881;BME280;63427;49.654;6.596;2023-01-29T04:34:20;100996.61;;;3.68;33.24
74881;BME280;63427;49.654;6.596;2023-01-29T04:36:43;100999.44;;;3.53;33.51
74881;BME280;63427;49.654;6.596;2023-01-29T04:39:10;101002.51;;;3.37;33.42
74881;BME280;63427;49.654;6.596;2023-01-29T04:41:32;101005.01;;;3.30;33.71
74881;BME280;63427;49.654;6.596;2023-01-29T04:43:59;101006.56;;;3.40;34.15
74881;BME280;63427;49.654;6.596;2023-01-29T04:46:21;101002.59;;;3.91;33.74
74881;BME280;63427;49.654;6.596;2023-01-29T04:48:56;100999.73;;;3.54;33.47
74881;BME280;63427;49.654;6.596;2023-01-29T04:51:14;100996.48;;;3.29;33.12
74881;BME280;63427;49.654;6.596;2023-01-29T04:53:41;100998.64;;;3.44;33.21
74881;BME280;63427;49.654;6.596;2023-01-29T04:56:07;101000.51;;;3.29;34.40
74881;BME280;63427;49.654;6.596;2023-01-29T04:58:32;101002.54;;;3.61;34.56
74881;BME280;63427;49.654;6.596;2023-01-29T05:00:53;101002.81;;;3.48;34.59
74881;BME280;63427;49.654;6.596;2023-01-29T05:03:17;101000.13;;;3.48;33.73
74881;BME280;63427;49.654;6.596;2023-01-29T05:05:45;100995.15;;;3.54;34.10
74881;BME280;63427;49.654;6.596;2023-01-29T05:08:08;100994.19;;;3.49;34.16
74881;BME280;63427;49.654;6.596;2023-01-29T05:10:34;100994.64;;;3.41;34.26
74881;BME280;63427;49.654;6.596;2023-01-29T05:13:00;100989.88;;;3.23;34.48
74881;BME280;63427;49.654;6.596;2023-01-29T05:15:26;100989.36;;;3.49;34.63
74881;BME280;63427;49.654;6.596;2023-01-29T05:17:49;100988.96;;;3.29;33.58
74881;BME280;63427;49.654;6.596;2023-01-29T05:20:15;100982.17;;;3.47;33.71
74881;BME280;63427;49.654;6.596;2023-01-29T05:22:41;100972.95;;;3.39;34.45
74881;BME280;63427;49.654;6.596;2023-01-29T05:25:19;100966.74;;;3.38;34.66
74881;BME280;63427;49.654;6.596;2023-01-29T05:27:34;100962.36;;;3.47;34.69
74881;BME280;63427;49.654;6.596;2023-01-29T05:29:57;100961.50;;;3.47;34.52
74881;BME280;63427;49.654;6.596;2023-01-29T05:32:23;100963.18;;;3.56;34.99
74881;BME280;63427;49.654;6.596;2023-01-29T05:34:49;100962.02;;;3.48;34.79
74881;BME280;63427;49.654;6.596;2023-01-29T05:37:14;100960.76;;;3.60;34.55
74881;BME280;63427;49.654;6.596;2023-01-29T05:39:39;100954.23;;;2.91;32.99
74881;BME280;63427;49.654;6.596;2023-01-29T05:42:05;100949.71;;;2.99;33.19
74881;BME280;63427;49.654;6.596;2023-01-29T05:44:30;100948.11;;;3.30;34.35
74881;BME280;63427;49.654;6.596;2023-01-29T05:46:56;100947.04;;;3.14;34.33
74881;BME280;63427;49.654;6.596;2023-01-29T05:49:21;100952.32;;;3.52;34.23
74881;BME280;63427;49.654;6.596;2023-01-29T05:51:46;100960.65;;;3.56;34.25
74881;BME280;63427;49.654;6.596;2023-01-29T05:54:11;100969.66;;;3.18;34.84
74881;BME280;63427;49.654;6.596;2023-01-29T05:56:37;100973.29;;;3.46;34.30
74881;BME280;63427;49.654;6.596;2023-01-29T05:59:02;100973.70;;;3.22;34.56
74881;BME280;63427;49.654;6.596;2023-01-29T06:01:27;100969.02;;;3.40;34.83
74881;BME280;63427;49.654;6.596;2023-01-29T06:03:53;100978.95;;;3.16;35.06
74881;BME280;63427;49.654;6.596;2023-01-29T06:06:19;100976.56;;;3.30;34.87
74881;BME280;63427;49.654;6.596;2023-01-29T06:08:43;100977.53;;;3.30;34.73
74881;BME280;63427;49.654;6.596;2023-01-29T06:11:11;100987.33;;;2.98;34.96
74881;BME280;63427;49.654;6.596;2023-01-29T06:13:35;100989.20;;;3.41;34.95
74881;BME280;63427;49.654;6.596;2023-01-29T06:16:04;100994.21;;;3.50;34.56
74881;BME280;63427;49.654;6.596;2023-01-29T06:18:26;100996.92;;;3.47;35.07
74881;BME280;63427;49.654;6.596;2023-01-29T06:20:51;100995.52;;;3.42;34.81
74881;BME280;63427;49.654;6.596;2023-01-29T06:23:16;100988.17;;;3.16;35.03
74881;BME280;63427;49.654;6.596;2023-01-29T06:25:42;100986.52;;;3.06;35.81
74881;BME280;63427;49.654;6.596;2023-01-29T06:28:07;100981.58;;;3.26;35.99
74881;BME280;63427;49.654;6.596;2023-01-29T06:30:33;100971.71;;;3.28;35.65
74881;BME280;63427;49.654;6.596;2023-01-29T06:32:59;100973.92;;;3.15;35.12
74881;BME280;63427;49.654;6.596;2023-01-29T06:35:24;100983.69;;;3.18;35.88
74881;BME280;63427;49.654;6.596;2023-01-29T06:37:50;100984.70;;;3.04;35.85
74881;BME280;63427;49.654;6.596;2023-01-29T06:40:16;100985.32;;;3.25;35.75
74881;BME280;63427;49.654;6.596;2023-01-29T06:42:41;100979.75;;;3.34;35.93
74881;BME280;63427;49.654;6.596;2023-01-29T06:45:07;100978.83;;;3.34;35.48
74881;BME280;63427;49.654;6.596;2023-01-29T06:47:31;100982.19;;;3.16;35.12
74881;BME280;63427;49.654;6.596;2023-01-29T06:49:57;100978.44;;;3.05;35.76
74881;BME280;63427;49.654;6.596;2023-01-29T06:52:22;100974.73;;;3.13;35.41
74881;BME280;63427;49.654;6.596;2023-01-29T06:54:47;100970.29;;;3.34;35.19
74881;BME280;63427;49.654;6.596;2023-01-29T06:57:13;100969.16;;;3.17;35.57
74881;BME280;63427;49.654;6.596;2023-01-29T06:59:38;100971.47;;;3.32;35.65
74881;BME280;63427;49.654;6.596;2023-01-29T07:02:03;100975.67;;;3.12;35.06
74881;BME280;63427;49.654;6.596;2023-01-29T07:04:29;100969.03;;;3.24;34.78
74881;BME280;63427;49.654;6.596;2023-01-29T07:06:54;100966.04;;;3.21;35.49
74881;BME280;63427;49.654;6.596;2023-01-29T07:09:19;100964.04;;;2.80;35.23
74881;BME280;63427;49.654;6.596;2023-01-29T07:11:44;100967.28;;;3.07;35.06
74881;BME280;63427;49.654;6.596;2023-01-29T07:14:10;100966.44;;;3.47;36.17
74881;BME280;63427;49.654;6.596;2023-01-29T07:16:36;100961.21;;;3.20;35.63
74881;BME280;63427;49.654;6.596;2023-01-29T07:19:01;100972.43;;;3.11;35.17
74881;BME280;63427;49.654;6.596;2023-01-29T07:21:26;100973.22;;;3.08;35.25
74881;BME280;63427;49.654;6.596;2023-01-29T07:23:52;100968.89;;;3.05;35.56
74881;BME280;63427;49.654;6.596;2023-01-29T07:26:17;100973.47;;;3.01;35.48
74881;BME280;63427;49.654;6.596;2023-01-29T07:28:43;100981.46;;;2.97;35.63
74881;BME280;63427;49.654;6.596;2023-01-29T07:31:11;100986.01;;;2.97;35.49
74881;BME280;63427;49.654;6.596;2023-01-29T07:33:34;100991.94;;;2.95;35.55
74881;BME280;63427;49.654;6.596;2023-01-29T07:36:00;100999.12;;;2.88;35.74
74881;BME280;63427;49.654;6.596;2023-01-29T07:38:26;101006.21;;;2.80;35.96
74881;BME280;63427;49.654;6.596;2023-01-29T07:40:52;101006.02;;;2.77;36.02
74881;BME280;63427;49.654;6.596;2023-01-29T07:43:17;101006.63;;;2.66;36.18
74881;BME280;63427;49.654;6.596;2023-01-29T07:45:43;101009.94;;;2.60;36.22
74881;BME280;63427;49.654;6.596;2023-01-29T07:48:10;101001.48;;;2.65;36.41
74881;BME280;63427;49.654;6.596;2023-01-29T07:50:34;101005.31;;;2.58;36.22
74881;BME280;63427;49.654;6.596;2023-01-29T07:53:00;101006.30;;;2.11;36.15
74881;BME280;63427;49.654;6.596;2023-01-29T07:55:25;101006.65;;;2.52;36.18
74881;BME280;63427;49.654;6.596;2023-01-29T07:57:54;101013.88;;;2.20;35.98
74881;BME280;63427;49.654;6.596;2023-01-29T08:00:17;101019.85;;;2.51;36.41
74881;BME280;63427;49.654;6.596;2023-01-29T08:02:41;101015.74;;;2.55;36.51
74881;BME280;63427;49.654;6.596;2023-01-29T08:05:08;101012.42;;;2.29;36.70
74881;BME280;63427;49.654;6.596;2023-01-29T08:07:33;101014.01;;;2.50;36.42
74881;BME280;63427;49.654;6.596;2023-01-29T08:09:58;101011.75;;;2.54;36.32
74881;BME280;63427;49.654;6.596;2023-01-29T08:12:23;101010.79;;;2.59;36.63
74881;BME280;63427;49.654;6.596;2023-01-29T08:14:49;101010.70;;;2.49;36.70
74881;BME280;63427;49.654;6.596;2023-01-29T08:17:15;101013.82;;;2.63;36.81
74881;BME280;63427;49.654;6.596;2023-01-29T08:19:40;101011.53;;;2.24;36.29
74881;BME280;63427;49.654;6.596;2023-01-29T08:22:06;101005.40;;;2.40;36.27
74881;BME280;63427;49.654;6.596;2023-01-29T08:24:32;101003.15;;;2.22;36.46
74881;BME280;63427;49.654;6.596;2023-01-29T08:26:57;100999.41;;;2.62;36.42
74881;BME280;63427;49.654;6.596;2023-01-29T08:29:22;101001.79;;;2.65;36.65
74881;BME280;63427;49.654;6.596;2023-01-29T08:31:48;100998.98;;;2.46;36.59
74881;BME280;63427;49.654;6.596;2023-01-29T08:34:13;100994.56;;;2.77;36.38
74881;BME280;63427;49.654;6.596;2023-01-29T08:36:38;100998.11;;;2.67;36.34
74881;BME280;63427;49.654;6.596;2023-01-29T08:39:04;101004.50;;;2.71;36.93
74881;BME280;63427;49.654;6.596;2023-01-29T08:41:30;101010.35;;;2.84;36.27
74881;BME280;63427;49.654;6.596;2023-01-29T08:43:55;101013.84;;;2.71;36.08
74881;BME280;63427;49.654;6.596;2023-01-29T08:46:20;101019.99;;;2.88;36.70
74881;BME280;63427;49.654;6.596;2023-01-29T08:48:46;101020.34;;;3.49;35.51
74881;BME280;63427;49.654;6.596;2023-01-29T08:51:12;101027.93;;;3.46;35.22
74881;BME280;63427;49.654;6.596;2023-01-29T08:53:36;101033.00;;;3.81;34.40
74881;BME280;63427;49.654;6.596;2023-01-29T08:56:01;101036.90;;;3.41;34.25
74881;BME280;63427;49.654;6.596;2023-01-29T08:58:27;101035.95;;;3.74;34.25
74881;BME280;63427;49.654;6.596;2023-01-29T09:00:52;101029.76;;;3.63;35.51
74881;BME280;63427;49.654;6.596;2023-01-29T09:03:17;101027.80;;;3.92;34.29
74881;BME280;63427;49.654;6.596;2023-01-29T09:05:43;101027.86;;;4.13;34.27
74881;BME280;63427;49.654;6.596;2023-01-29T09:08:09;101021.50;;;4.32;34.57
74881;BME280;63427;49.654;6.596;2023-01-29T09:10:34;101021.09;;;4.52;33.01
74881;BME280;63427;49.654;6.596;2023-01-29T09:13:00;101020.85;;;4.18;32.91
74881;BME280;63427;49.654;6.596;2023-01-29T09:15:25;101015.92;;;4.58;32.68
74881;BME280;63427;49.654;6.596;2023-01-29T09:17:51;101017.04;;;4.85;32.96
74881;BME280;63427;49.654;6.596;2023-01-29T09:20:17;101024.84;;;4.33;33.01
74881;BME280;63427;49.654;6.596;2023-01-29T09:22:42;101033.49;;;4.52;33.16
74881;BME280;63427;49.654;6.596;2023-01-29T09:25:08;101033.47;;;4.71;33.29
74881;BME280;63427;49.654;6.596;2023-01-29T09:27:33;101028.06;;;4.72;32.79
74881;BME280;63427;49.654;6.596;2023-01-29T09:29:58;101022.65;;;4.86;32.91
74881;BME280;63427;49.654;6.596;2023-01-29T09:32:23;101021.75;;;5.03;32.51
74881;BME280;63427;49.654;6.596;2023-01-29T09:34:49;101025.00;;;4.80;32.05
74881;BME280;63427;49.654;6.596;2023-01-29T09:37:14;101021.28;;;4.70;32.29
74881;BME280;63427;49.654;6.596;2023-01-29T09:39:40;101016.39;;;5.06;32.68
74881;BME280;63427;49.654;6.596;2023-01-29T09:42:11;101017.69;;;4.91;32.36
74881;BME280;63427;49.654;6.596;2023-01-29T09:44:44;101021.84;;;4.96;31.04
74881;BME280;63427;49.654;6.596;2023-01-29T09:46:57;101026.84;;;4.94;31.45
74881;BME280;63427;49.654;6.596;2023-01-29T09:49:25;101038.74;;;5.22;32.21
74881;BME280;63427;49.654;6.596;2023-01-29T09:51:49;101040.23;;;5.13;31.22
74881;BME280;63427;49.654;6.596;2023-01-29T09:54:17;101040.33;;;5.17;31.48
74881;BME280;63427;49.654;6.596;2023-01-29T09:56:38;101044.63;;;5.47;31.22
74881;BME280;63427;49.654;6.596;2023-01-29T09:59:04;101046.14;;;5.24;30.82
74881;BME280;63427;49.654;6.596;2023-01-29T10:01:32;101044.32;;;5.47;31.08
74881;BME280;63427;49.654;6.596;2023-01-29T10:04:06;101040.39;;;5.16;30.85
74881;BME280;63427;49.654;6.596;2023-01-29T10:06:27;101038.35;;;5.20;30.36
74881;BME280;63427;49.654;6.596;2023-01-29T10:09:01;101038.05;;;5.16;30.79
74881;BME280;63427;49.654;6.596;2023-01-29T10:11:18;101041.39;;;5.47;30.33
74881;BME280;63427;49.654;6.596;2023-01-29T10:13:43;101043.74;;;5.23;31.06
74881;BME280;63427;49.654;6.596;2023-01-29T10:16:16;101052.90;;;5.09;30.62
74881;BME280;63427;49.654;6.596;2023-01-29T10:18:43;101048.85;;;5.03;30.83
74881;BME280;63427;49.654;6.596;2023-01-29T10:21:01;101042.11;;;5.50;30.90
74881;BME280;63427;49.654;6.596;2023-01-29T10:23:24;101042.79;;;5.27;30.85
74881;BME280;63427;49.654;6.596;2023-01-29T10:25:46;101039.26;;;5.06;31.05
74881;BME280;63427;49.654;6.596;2023-01-29T10:28:15;101030.42;;;5.39;30.59
74881;BME280;63427;49.654;6.596;2023-01-29T10:30:39;101025.65;;;5.40;31.26
74881;BME280;63427;49.654;6.596;2023-01-29T10:33:03;101015.93;;;5.13;31.35
74881;BME280;63427;49.654;6.596;2023-01-29T10:35:30;101010.29;;;5.70;30.39
74881;BME280;63427;49.654;6.596;2023-01-29T10:37:53;101010.63;;;5.58;29.84
74881;BME280;63427;49.654;6.596;2023-01-29T10:40:20;101002.53;;;5.19;30.53
74881;BME280;63427;49.654;6.596;2023-01-29T10:42:57;100995.32;;;5.45;30.68
74881;BME280;63427;49.654;6.596;2023-01-29T10:45:19;100991.68;;;5.18;30.27
74881;BME280;63427;49.654;6.596;2023-01-29T10:47:51;100986.45;;;5.25;30.16
74881;BME280;63427;49.654;6.596;2023-01-29T10:50:13;100978.00;;;5.36;30.79
74881;BME280;63427;49.654;6.596;2023-01-29T10:52:36;100975.58;;;5.52;29.63
74881;BME280;63427;49.654;6.596;2023-01-29T10:55:01;100978.85;;;5.62;30.32
74881;BME280;63427;49.654;6.596;2023-01-29T10:57:31;100970.16;;;5.38;30.39
74881;BME280;63427;49.654;6.596;2023-01-29T10:59:58;100967.34;;;5.72;29.56
74881;BME280;63427;49.654;6.596;2023-01-29T11:02:13;100958.60;;;5.73;30.41
74881;BME280;63427;49.654;6.596;2023-01-29T11:04:34;100947.02;;;5.90;30.01
74881;BME280;63427;49.654;6.596;2023-01-29T11:06:59;100947.71;;;5.81;28.89
74881;BME280;63427;49.654;6.596;2023-01-29T11:09:29;100937.81;;;5.92;29.17
74881;BME280;63427;49.654;6.596;2023-01-29T11:11:55;100937.58;;;5.88;29.42
74881;BME280;63427;49.654;6.596;2023-01-29T11:14:20;100937.97;;;5.59;29.78
74881;BME280;63427;49.654;6.596;2023-01-29T11:16:42;100935.87;;;5.94;30.56
74881;BME280;63427;49.654;6.596;2023-01-29T11:19:06;100933.52;;;6.39;30.01
74881;BME280;63427;49.654;6.596;2023-01-29T11:21:31;100932.93;;;6.33;30.33
74881;BME280;63427;49.654;6.596;2023-01-29T11:24:04;100924.87;;;6.39;29.63
74881;BME280;63427;49.654;6.596;2023-01-29T11:26:22;100922.71;;;6.57;29.62
74881;BME280;63427;49.654;6.596;2023-01-29T11:28:49;100920.93;;;6.44;29.30
74881;BME280;63427;49.654;6.596;2023-01-29T11:31:21;100917.72;;;6.78;28.78
74881;BME280;63427;49.654;6.596;2023-01-29T11:33:39;100915.73;;;6.60;29.78
74881;BME280;63427;49.654;6.596;2023-01-29T11:38:30;100903.61;;;6.47;29.45
74881;BME280;63427;49.654;6.596;2023-01-29T11:41:04;100901.27;;;5.83;28.67
74881;BME280;63427;49.654;6.596;2023-01-29T11:43:28;100900.54;;;6.76;28.88
74881;BME280;63427;49.654;6.596;2023-01-29T11:45:48;100894.59;;;6.86;29.93
74881;BME280;63427;49.654;6.596;2023-01-29T11:48:15;100893.08;;;7.06;29.23
74881;BME280;63427;49.654;6.596;2023-01-29T11:50:38;100889.24;;;7.29;28.01
74881;BME280;63427;49.654;6.596;2023-01-29T11:53:03;100887.52;;;7.14;27.74
74881;BME280;63427;49.654;6.596;2023-01-29T11:55:31;100882.71;;;6.71;27.73
74881;BME280;63427;49.654;6.596;2023-01-29T11:57:57;100885.14;;;7.45;28.52
74881;BME280;63427;49.654;6.596;2023-01-29T12:00:22;100887.47;;;6.63;27.50
74881;BME280;63427;49.654;6.596;2023-01-29T12:02:44;100885.25;;;7.51;27.90
74881;BME280;63427;49.654;6.596;2023-01-29T12:05:14;100885.58;;;7.31;28.22
74881;BME280;63427;49.654;6.596;2023-01-29T12:07:39;100884.74;;;8.05;27.58
74881;BME280;63427;49.654;6.596;2023-01-29T12:09:59;100880.98;;;8.18;26.92
74881;BME280;63427;49.654;6.596;2023-01-29T12:12:31;100873.87;;;8.51;26.57
74881;BME280;63427;49.654;6.596;2023-01-29T12:15:03;100873.19;;;8.34;26.91
74881;BME280;63427;49.654;6.596;2023-01-29T12:17:19;100874.43;;;8.56;26.80
74881;BME280;63427;49.654;6.596;2023-01-29T12:19:44;100871.84;;;8.87;26.58
74881;BME280;63427;49.654;6.596;2023-01-29T12:22:13;100870.62;;;8.72;26.91
74881;BME280;63427;49.654;6.596;2023-01-29T12:24:35;100860.83;;;8.84;26.22
74881;BME280;63427;49.654;6.596;2023-01-29T12:27:06;100856.42;;;9.06;26.79
74881;BME280;63427;49.654;6.596;2023-01-29T12:29:32;100844.89;;;9.09;25.61
74881;BME280;63427;49.654;6.596;2023-01-29T12:31:53;100842.83;;;9.19;26.47
74881;BME280;63427;49.654;6.596;2023-01-29T12:34:19;100844.29;;;9.00;25.43
74881;BME280;63427;49.654;6.596;2023-01-29T12:36:43;100842.48;;;8.89;25.31
74881;BME280;63427;49.654;6.596;2023-01-29T12:39:07;100840.74;;;8.71;26.69
74881;BME280;63427;49.654;6.596;2023-01-29T12:41:37;100833.79;;;8.58;27.75
74881;BME280;63427;49.654;6.596;2023-01-29T12:44:01;100829.35;;;9.12;26.55
74881;BME280;63427;49.654;6.596;2023-01-29T12:46:25;100819.82;;;9.12;25.19
74881;BME280;63427;49.654;6.596;2023-01-29T12:48:48;100808.64;;;9.99;25.39
74881;BME280;63427;49.654;6.596;2023-01-29T12:51:15;100808.23;;;8.41;25.07